createdAt,value
2018-04-23T00:00:40.439Z,8.27
2018-04-23T00:03:08.744Z,7.90
2018-04-23T00:05:36.263Z,7.83
2018-04-23T00:08:03.802Z,9.27
2018-04-23T00:10:31.325Z,8.50
2018-04-23T00:12:59.648Z,7.47
2018-04-23T00:15:27.170Z,8.30
2018-04-23T00:17:54.725Z,8.43
2018-04-23T00:20:22.255Z,8.67
2018-04-23T00:22:49.802Z,8.17
2018-04-23T00:25:17.323Z,7.77
2018-04-23T00:27:44.871Z,9.00
2018-04-23T00:30:13.312Z,9.50
2018-04-23T00:32:41.624Z,9.73
2018-04-23T00:35:09.155Z,8.10
2018-04-23T00:37:36.736Z,8.90
2018-04-23T00:40:04.293Z,8.60
2018-04-23T00:42:31.844Z,15.67
2018-04-23T00:44:59.453Z,9.57
2018-04-23T00:47:26.990Z,9.40
2018-04-23T00:49:54.555Z,9.60
2018-04-23T00:52:22.074Z,28.70
2018-04-23T00:54:49.629Z,13.20
2018-04-23T00:57:17.159Z,10.50
2018-04-23T00:59:44.727Z,11.10
2018-04-23T01:02:12.247Z,11.47
2018-04-23T01:04:39.789Z,12.00
2018-04-23T01:07:07.314Z,12.90
2018-04-23T01:09:34.867Z,10.90
2018-04-23T01:12:02.399Z,12.20
2018-04-23T01:14:30.811Z,11.03
2018-04-23T01:16:58.356Z,9.07
2018-04-23T01:19:25.998Z,9.50
2018-04-23T01:21:54.743Z,9.00
2018-04-23T01:24:22.308Z,10.40
2018-04-23T01:26:49.837Z,9.63
2018-04-23T01:29:17.405Z,11.60
2018-04-23T01:31:44.936Z,11.00
2018-04-23T01:34:12.480Z,9.73
2018-04-23T01:36:40.010Z,10.77
2018-04-23T01:39:07.571Z,10.60
2018-04-23T01:41:35.087Z,11.50
2018-04-23T01:44:02.634Z,10.77
2018-04-23T01:46:30.155Z,11.83
2018-04-23T01:48:58.467Z,12.10
2018-04-23T01:51:25.994Z,11.40
2018-04-23T01:53:53.545Z,11.70
2018-04-23T01:56:21.080Z,11.60
2018-04-23T01:58:48.636Z,12.37
2018-04-23T02:01:16.163Z,11.23
2018-04-23T02:03:43.707Z,12.90
2018-04-23T02:06:11.231Z,13.40
2018-04-23T02:08:39.543Z,14.30
2018-04-23T02:11:07.066Z,14.33
2018-04-23T02:13:34.612Z,13.60
2018-04-23T02:16:02.151Z,11.40
2018-04-23T02:18:29.682Z,11.67
2018-04-23T02:20:58.013Z,11.47
2018-04-23T02:23:25.546Z,11.63
2018-04-23T02:25:53.095Z,11.90
2018-04-23T02:28:20.631Z,12.63
2018-04-23T02:30:48.199Z,11.17
2018-04-23T02:33:15.810Z,11.53
2018-04-23T02:35:43.368Z,11.47
2018-04-23T02:38:10.893Z,11.60
2018-04-23T02:40:38.440Z,12.10
2018-04-23T02:43:05.964Z,11.47
2018-04-23T02:45:33.508Z,12.30
2018-04-23T02:48:01.027Z,11.10
2018-04-23T02:50:29.358Z,12.50
2018-04-23T02:52:57.399Z,12.40
2018-04-23T02:55:24.955Z,11.40
2018-04-23T02:57:52.472Z,12.60
2018-04-23T03:00:20.031Z,13.10
2018-04-23T03:02:47.564Z,13.23
2018-04-23T03:05:15.220Z,12.60
2018-04-23T03:07:42.768Z,12.87
2018-04-23T03:10:10.318Z,13.67
2018-04-23T03:12:37.838Z,12.00
2018-04-23T03:15:05.384Z,12.20
2018-04-23T03:17:32.919Z,13.13
2018-04-23T03:20:00.471Z,12.47
2018-04-23T03:22:27.993Z,13.13
2018-04-23T03:24:55.573Z,12.63
2018-04-23T03:27:23.114Z,12.90
2018-04-23T03:29:50.682Z,12.50
2018-04-23T03:32:18.207Z,20.50
2018-04-23T03:34:45.763Z,15.23
2018-04-23T03:37:13.350Z,13.00
2018-04-23T03:39:40.867Z,14.00
2018-04-23T03:42:08.395Z,14.10
2018-04-23T03:44:36.032Z,12.63
2018-04-23T03:47:03.575Z,12.70
2018-04-23T03:49:31.123Z,13.00
2018-04-23T03:51:58.687Z,13.10
2018-04-23T03:54:26.209Z,12.20
2018-04-23T03:56:53.767Z,11.70
2018-04-23T03:59:21.314Z,11.77
2018-04-23T04:01:48.952Z,13.20
2018-04-23T04:04:16.474Z,12.00
2018-04-23T04:06:44.027Z,12.23
2018-04-23T04:09:11.577Z,11.93
2018-04-23T04:11:39.128Z,11.20
2018-04-23T04:14:18.592Z,10.13
2018-04-23T04:16:55.704Z,10.70
2018-04-23T04:19:23.219Z,9.87
2018-04-23T04:21:50.758Z,10.17
2018-04-23T04:24:19.051Z,11.00
2018-04-23T04:26:46.594Z,10.67
2018-04-23T04:29:14.124Z,10.70
2018-04-23T04:31:42.514Z,9.50
2018-04-23T04:34:10.038Z,10.87
2018-04-23T04:36:37.591Z,11.30
2018-04-23T04:39:06.483Z,11.27
2018-04-23T04:41:34.842Z,11.53
2018-04-23T04:44:02.363Z,10.20
2018-04-23T04:46:29.920Z,10.47
2018-04-23T04:48:57.467Z,10.97
2018-04-23T04:51:25.043Z,10.93
2018-04-23T04:53:52.577Z,10.40
2018-04-23T04:56:20.124Z,10.10
2018-04-23T04:58:47.715Z,10.33
2018-04-23T05:01:16.031Z,10.70
2018-04-23T05:03:43.662Z,10.10
2018-04-23T05:06:11.212Z,10.10
2018-04-23T05:08:38.748Z,10.90
2018-04-23T05:11:06.299Z,9.90
2018-04-23T05:13:33.814Z,10.17
2018-04-23T05:16:01.374Z,10.70
2018-04-23T05:18:28.905Z,11.03
2018-04-23T05:20:56.499Z,11.10
2018-04-23T05:23:24.829Z,10.43
2018-04-23T05:25:52.356Z,10.13
2018-04-23T05:28:19.907Z,10.33
2018-04-23T05:30:47.492Z,9.90
2018-04-23T05:33:16.545Z,9.40
2018-04-23T05:35:44.101Z,10.10
2018-04-23T05:38:11.639Z,9.30
2018-04-23T05:40:39.163Z,10.17
2018-04-23T05:43:06.716Z,10.27
2018-04-23T05:45:34.271Z,9.30
2018-04-23T05:48:01.916Z,10.07
2018-04-23T05:50:30.263Z,9.60
2018-04-23T05:52:57.820Z,9.67
2018-04-23T05:55:25.387Z,10.20
2018-04-23T05:57:52.935Z,10.73
2018-04-23T06:00:20.452Z,9.40
2018-04-23T06:02:48.113Z,9.80
2018-04-23T06:05:15.660Z,10.87
2018-04-23T06:07:43.758Z,9.50
2018-04-23T06:10:11.276Z,9.70
2018-04-23T06:12:39.650Z,9.67
2018-04-23T06:15:07.176Z,10.23
2018-04-23T06:17:34.730Z,9.50
2018-04-23T06:20:02.261Z,9.10
2018-04-23T06:22:29.807Z,9.40
2018-04-23T06:24:57.441Z,9.33
2018-04-23T06:27:24.982Z,9.07
2018-04-23T06:29:52.511Z,9.77
2018-04-23T06:32:20.055Z,8.50
2018-04-23T06:34:47.578Z,8.87
2018-04-23T06:37:15.260Z,8.50
2018-04-23T06:39:42.787Z,9.47
2018-04-23T06:42:10.393Z,8.30
2018-04-23T06:44:38.684Z,8.10
2018-04-23T06:47:06.239Z,7.70
2018-04-23T06:49:33.910Z,9.03
2018-04-23T06:52:02.002Z,8.40
2018-04-23T06:54:30.527Z,8.13
2018-04-23T06:56:58.083Z,7.87
2018-04-23T06:59:25.632Z,8.23
2018-04-23T07:01:53.173Z,7.30
2018-04-23T07:04:20.692Z,7.90
2018-04-23T07:06:48.253Z,7.20
2018-04-23T07:09:15.806Z,8.13
2018-04-23T07:11:43.323Z,7.13
2018-04-23T07:14:10.883Z,8.00
2018-04-23T07:16:38.416Z,7.70
2018-04-23T07:19:06.100Z,7.83
2018-04-23T07:21:33.825Z,8.03
2018-04-23T07:24:01.421Z,8.50
2018-04-23T07:26:28.922Z,7.70
2018-04-23T07:28:56.468Z,8.10
2018-04-23T07:31:23.996Z,8.43
2018-04-23T07:33:51.586Z,8.17
2018-04-23T07:36:19.106Z,7.47
2018-04-23T07:38:46.647Z,7.80
2018-04-23T07:41:14.168Z,8.70
2018-04-23T07:43:41.742Z,7.83
2018-04-23T07:46:09.263Z,9.20
2018-04-23T07:48:36.811Z,8.60
2018-04-23T07:51:04.329Z,9.20
2018-04-23T07:53:31.901Z,8.03
2018-04-23T07:55:59.438Z,9.13
2018-04-23T07:58:27.020Z,8.77
2018-04-23T08:00:54.547Z,9.67
2018-04-23T08:03:22.090Z,9.53
2018-04-23T08:05:49.724Z,9.37
2018-04-23T08:08:17.270Z,9.70
2018-04-23T08:10:44.795Z,9.90
2018-04-23T08:13:12.363Z,9.13
2018-04-23T08:15:39.931Z,11.10
2018-04-23T08:18:07.483Z,9.90
2018-04-23T08:20:35.007Z,9.60
2018-04-23T08:23:02.636Z,8.10
2018-04-23T08:25:30.261Z,8.40
2018-04-23T08:27:57.825Z,8.30
2018-04-23T08:30:25.347Z,8.53
2018-04-23T08:32:52.916Z,9.10
2018-04-23T08:35:21.444Z,6.57
2018-04-23T08:37:49.011Z,6.30
2018-04-23T08:40:16.527Z,5.43
2018-04-23T08:42:44.951Z,6.20
2018-04-23T08:45:12.517Z,6.00
2018-04-23T08:47:40.808Z,5.83
2018-04-23T08:50:08.422Z,5.73
2018-04-23T08:52:35.942Z,5.83
2018-04-23T08:55:03.571Z,6.00
2018-04-23T08:57:31.598Z,5.60
2018-04-23T08:59:59.852Z,5.53
2018-04-23T09:02:28.163Z,5.70
2018-04-23T09:04:55.719Z,5.00
2018-04-23T09:07:23.243Z,4.40
2018-04-23T09:09:50.815Z,5.50
2018-04-23T09:12:18.335Z,5.10
2018-04-23T09:14:45.883Z,4.90
2018-04-23T09:17:13.411Z,3.97
2018-04-23T09:19:40.952Z,4.50
2018-04-23T09:22:08.483Z,5.50
2018-04-23T09:24:36.030Z,7.17
2018-04-23T09:27:03.559Z,8.53
2018-04-23T09:29:31.111Z,7.93
2018-04-23T09:31:59.000Z,6.97
2018-04-23T09:34:26.644Z,7.30
2018-04-23T09:36:54.171Z,6.70
2018-04-23T09:39:21.731Z,6.57
2018-04-23T09:41:49.355Z,6.30
2018-04-23T09:44:16.935Z,7.70
2018-04-23T09:46:44.459Z,8.23
2018-04-23T09:49:12.003Z,7.97
2018-04-23T09:51:39.524Z,9.13
2018-04-23T09:54:07.069Z,7.60
2018-04-23T09:56:34.591Z,8.60
2018-04-23T09:59:02.903Z,8.53
2018-04-23T10:01:30.440Z,8.80
2018-04-23T10:04:03.603Z,8.00
2018-04-23T10:06:31.143Z,9.13
2018-04-23T10:08:58.739Z,10.03
2018-04-23T10:11:26.271Z,9.00
2018-04-23T10:13:54.588Z,9.23
2018-04-23T10:16:22.107Z,10.40
2018-04-23T10:18:49.671Z,10.07
2018-04-23T10:21:17.976Z,10.70
2018-04-23T10:23:45.595Z,10.70
2018-04-23T10:26:13.150Z,12.13
2018-04-23T10:28:40.704Z,11.60
2018-04-23T10:31:08.259Z,13.47
2018-04-23T10:33:35.803Z,16.10
2018-04-23T10:36:03.352Z,18.43
2018-04-23T10:38:30.991Z,18.43
2018-04-23T10:40:58.714Z,16.63
2018-04-23T10:43:26.263Z,17.87
2018-04-23T10:45:53.883Z,18.10
2018-04-23T10:48:21.527Z,16.50
2018-04-23T10:50:49.100Z,17.77
2018-04-23T10:53:16.624Z,15.97
2018-04-23T10:55:44.935Z,15.97
2018-04-23T10:58:12.468Z,15.63
2018-04-23T11:00:40.011Z,14.70
2018-04-23T11:03:07.534Z,14.10
2018-04-23T11:05:35.089Z,14.37
2018-04-23T11:08:02.663Z,12.53
2018-04-23T11:10:30.243Z,11.47
2018-04-23T11:12:58.536Z,10.80
2018-04-23T11:15:26.111Z,9.73
2018-04-23T11:17:53.664Z,9.97
2018-04-23T11:20:21.979Z,9.50
2018-04-23T11:22:49.498Z,10.37
2018-04-23T11:25:17.098Z,9.73
2018-04-23T11:27:44.621Z,9.50
2018-04-23T11:30:12.205Z,8.40
2018-04-23T11:32:39.755Z,9.40
2018-04-23T11:35:08.071Z,8.70
2018-04-23T11:37:35.599Z,9.47
2018-04-23T11:40:03.150Z,9.37
2018-04-23T11:42:30.713Z,9.83
2018-04-23T11:44:58.412Z,10.03
2018-04-23T11:47:26.735Z,10.63
2018-04-23T11:49:54.314Z,9.60
2018-04-23T11:52:21.849Z,10.30
2018-04-23T11:54:49.371Z,9.87
2018-04-23T11:57:16.965Z,9.93
2018-04-23T11:59:45.258Z,11.00
2018-04-23T12:02:12.861Z,8.87
2018-04-23T12:04:41.202Z,9.87
2018-04-23T12:07:11.208Z,10.37
2018-04-23T12:09:38.832Z,12.40
2018-04-23T12:12:06.387Z,10.27
2018-04-23T12:14:33.923Z,11.20
2018-04-23T12:17:01.491Z,10.27
2018-04-23T12:19:29.020Z,11.17
2018-04-23T12:21:56.574Z,10.57
2018-04-23T12:24:24.130Z,10.93
2018-04-23T12:26:53.228Z,11.90
2018-04-23T12:29:21.548Z,10.70
2018-04-23T12:31:49.194Z,11.13
2018-04-23T12:34:16.720Z,11.33
2018-04-23T12:36:44.263Z,11.07
2018-04-23T12:39:11.788Z,13.00
2018-04-23T12:41:39.360Z,11.20
2018-04-23T12:44:06.884Z,11.97
2018-04-23T12:46:34.460Z,11.97
2018-04-23T12:49:02.105Z,13.33
2018-04-23T12:51:29.675Z,11.10
2018-04-23T12:53:57.192Z,10.20
2018-04-23T12:56:24.739Z,10.50
2018-04-23T12:58:52.259Z,11.17
2018-04-23T13:01:19.819Z,13.20
2018-04-23T13:03:47.352Z,11.67
2018-04-23T13:06:14.898Z,11.07
2018-04-23T13:08:42.423Z,10.90
2018-04-23T13:11:09.974Z,11.00
2018-04-23T13:13:37.505Z,11.17
2018-04-23T13:16:05.054Z,10.70
2018-04-23T13:18:32.586Z,10.43
2018-04-23T13:21:01.001Z,10.50
2018-04-23T13:23:28.545Z,10.33
2018-04-23T13:25:56.481Z,10.87
2018-04-23T13:28:24.104Z,10.55
2018-04-23T13:30:52.514Z,11.30
2018-04-23T13:33:20.071Z,11.63
2018-04-23T13:35:47.633Z,12.30
2018-04-23T13:38:15.319Z,13.20
2018-04-23T13:40:42.899Z,13.00
2018-04-23T13:43:10.455Z,10.85
2018-04-23T13:45:37.999Z,11.50
2018-04-23T13:48:05.609Z,11.00
2018-04-23T13:50:33.138Z,10.80
2018-04-23T13:53:00.694Z,10.50
2018-04-23T13:55:28.218Z,10.80
2018-04-23T13:57:55.841Z,12.80
2018-04-23T14:00:24.134Z,9.50
2018-04-23T14:02:51.728Z,13.30
2018-04-23T14:05:19.261Z,12.33
2018-04-23T14:07:46.811Z,12.87
2018-04-23T14:10:14.695Z,12.93
2018-04-23T14:12:42.243Z,12.40
2018-04-23T14:15:10.785Z,14.57
2018-04-23T14:17:38.532Z,12.43
2018-04-23T14:20:06.051Z,12.17
2018-04-23T14:22:33.620Z,12.00
2018-04-23T14:25:01.147Z,12.23
2018-04-23T14:27:28.877Z,10.77
2018-04-23T14:29:56.571Z,10.70
2018-04-23T14:32:24.154Z,15.10
2018-04-23T14:34:51.700Z,11.43
2018-04-23T14:37:19.246Z,10.60
2018-04-23T14:39:46.823Z,11.30
2018-04-23T14:42:14.586Z,13.17
2018-04-23T14:44:42.228Z,17.40
2018-04-23T14:47:09.779Z,9.07
2018-04-23T14:49:37.323Z,9.43
2018-04-23T14:52:06.428Z,9.30
2018-04-23T14:54:34.741Z,8.03
2018-04-23T14:57:02.259Z,8.57
2018-04-23T14:59:29.804Z,8.83
2018-04-23T15:01:57.407Z,7.93
2018-04-23T15:04:25.097Z,9.40
2018-04-23T15:06:52.706Z,7.10
2018-04-23T15:09:20.250Z,7.80
2018-04-23T15:11:47.869Z,8.23
2018-04-23T15:14:15.409Z,7.20
2018-04-23T15:16:42.927Z,6.97
2018-04-23T15:19:10.517Z,6.40
2018-04-23T15:21:38.061Z,6.97
2018-04-23T15:24:06.245Z,5.90
2018-04-23T15:26:33.882Z,5.93
2018-04-23T15:29:01.428Z,5.63
2018-04-23T15:31:28.947Z,6.63
2018-04-23T15:33:56.507Z,5.83
2018-04-23T15:36:24.129Z,5.27
2018-04-23T15:38:51.775Z,5.00
2018-04-23T15:41:19.299Z,5.17
2018-04-23T15:43:46.850Z,4.90
2018-04-23T15:46:15.161Z,5.40
2018-04-23T15:48:42.723Z,5.27
2018-04-23T15:51:10.304Z,6.33
2018-04-23T15:53:37.855Z,4.50
2018-04-23T15:56:05.375Z,4.50
2018-04-23T15:58:32.947Z,4.07
2018-04-23T16:01:00.563Z,4.30
2018-04-23T16:03:28.103Z,3.07
2018-04-23T16:05:55.655Z,3.80
2018-04-23T16:08:23.208Z,4.03
2018-04-23T16:10:50.741Z,5.87
2018-04-23T16:13:18.321Z,7.10
2018-04-23T16:15:45.844Z,7.80
2018-04-23T16:18:13.391Z,7.20
2018-04-23T16:20:40.955Z,16.40
2018-04-23T16:23:08.474Z,7.63
2018-04-23T16:25:36.019Z,10.33
2018-04-23T16:28:03.569Z,5.00
2018-04-23T16:30:31.127Z,3.80
2018-04-23T16:32:58.648Z,3.90
2018-04-23T16:35:26.219Z,4.40
2018-04-23T16:37:53.768Z,4.83
2018-04-23T16:40:21.319Z,4.63
2018-04-23T16:42:48.850Z,4.53
2018-04-23T16:45:16.563Z,4.40
2018-04-23T16:47:44.848Z,4.60
2018-04-23T16:50:12.395Z,4.70
2018-04-23T16:52:39.915Z,4.00
2018-04-23T16:55:07.461Z,4.90
2018-04-23T16:57:35.053Z,7.00
2018-04-23T17:00:02.612Z,5.23
2018-04-23T17:02:30.137Z,4.10
2018-04-23T17:04:57.687Z,14.17
2018-04-23T17:07:25.383Z,6.80
2018-04-23T17:09:53.758Z,5.40
2018-04-23T17:12:22.027Z,4.40
2018-04-23T17:14:49.578Z,4.90
2018-04-23T17:17:17.462Z,10.80
2018-04-23T17:19:45.007Z,9.83
2018-04-23T17:22:12.539Z,8.60
2018-04-23T17:24:40.321Z,4.60
2018-04-23T17:27:07.878Z,6.03
2018-04-23T17:29:36.184Z,6.83
2018-04-23T17:32:03.724Z,10.10
2018-04-23T17:34:31.379Z,9.10
2018-04-23T17:36:58.923Z,7.80
2018-04-23T17:39:26.490Z,7.77
2018-04-23T17:41:55.597Z,12.53
2018-04-23T17:44:23.139Z,5.40
2018-04-23T17:46:51.460Z,6.63
2018-04-23T17:49:19.008Z,5.90
2018-04-23T17:51:46.575Z,12.07
2018-04-23T17:54:14.099Z,5.23
2018-04-23T17:56:41.669Z,9.13
2018-04-23T17:59:09.283Z,6.33
2018-04-23T18:01:36.836Z,9.10
2018-04-23T18:04:04.367Z,6.40
2018-04-23T18:06:31.914Z,7.63
2018-04-23T18:08:59.443Z,7.70
2018-04-23T18:11:26.991Z,8.53
2018-04-23T18:13:54.549Z,7.70
2018-04-23T18:16:22.091Z,9.07
2018-04-23T18:18:49.616Z,8.10
2018-04-23T18:21:17.158Z,9.03
2018-04-23T18:23:44.678Z,8.67
2018-04-23T18:26:12.983Z,17.70
2018-04-23T18:28:40.520Z,14.00
2018-04-23T18:31:08.080Z,8.70
2018-04-23T18:33:35.603Z,8.60
2018-04-23T18:36:03.171Z,9.57
2018-04-23T18:38:30.700Z,9.03
2018-04-23T18:40:58.249Z,14.37
2018-04-23T18:43:25.814Z,15.50
2018-04-23T18:45:53.353Z,33.03
2018-04-23T18:48:20.891Z,20.33
2018-04-23T18:50:48.446Z,22.70
2018-04-23T18:53:15.999Z,20.10
2018-04-23T18:55:43.555Z,12.40
2018-04-23T18:58:11.110Z,21.30
2018-04-23T19:00:39.551Z,19.00
2018-04-23T19:03:07.095Z,13.83
2018-04-23T19:05:34.610Z,16.93
2018-04-23T19:08:02.166Z,16.00
2018-04-23T19:10:29.828Z,13.33
2018-04-23T19:12:58.049Z,12.00
2018-04-23T19:15:25.576Z,14.40
2018-04-23T19:17:53.157Z,12.10
2018-04-23T19:20:20.714Z,13.60
2018-04-23T19:22:48.367Z,13.77
2018-04-23T19:25:15.923Z,13.70
2018-04-23T19:27:44.379Z,14.70
2018-04-23T19:30:11.899Z,14.07
2018-04-23T19:32:39.475Z,13.33
2018-04-23T19:35:07.517Z,12.60
2018-04-23T19:37:35.067Z,14.50
2018-04-23T19:40:02.610Z,12.97
2018-04-23T19:42:30.151Z,14.43
2018-04-23T19:44:57.682Z,13.27
2018-04-23T19:47:25.264Z,13.57
2018-04-23T19:49:53.718Z,15.80
2018-04-23T19:52:21.279Z,14.67
2018-04-23T19:54:48.803Z,12.73
2018-04-23T19:57:16.350Z,12.10
2018-04-23T19:59:43.976Z,13.17
2018-04-23T20:02:11.518Z,15.03
2018-04-23T20:04:39.035Z,13.93
2018-04-23T20:07:06.587Z,16.50
2018-04-23T20:09:34.117Z,14.93
2018-04-23T20:12:01.638Z,15.80
2018-04-23T20:14:29.974Z,14.40
2018-04-23T20:16:57.495Z,14.90
2018-04-23T20:19:25.065Z,13.50
2018-04-23T20:21:52.586Z,14.10
2018-04-23T20:24:20.179Z,12.50
2018-04-23T20:26:48.476Z,13.47
2018-04-23T20:29:16.036Z,12.83
2018-04-23T20:31:43.595Z,13.10
2018-04-23T20:34:11.234Z,11.40
2018-04-23T20:36:38.772Z,11.07
2018-04-23T20:39:06.324Z,10.87
2018-04-23T20:41:33.848Z,11.30
2018-04-23T20:44:01.438Z,10.80
2018-04-23T20:46:28.986Z,10.35
2018-04-23T20:48:56.599Z,9.80
2018-04-23T20:51:24.239Z,10.03
2018-04-23T20:53:51.793Z,9.40
2018-04-23T20:56:19.340Z,9.20
2018-04-23T20:58:46.883Z,9.47
2018-04-23T21:01:14.424Z,9.53
2018-04-23T21:03:41.967Z,10.20
2018-04-23T21:06:09.528Z,9.27
2018-04-23T21:08:37.085Z,8.60
2018-04-23T21:11:04.633Z,8.53
2018-04-23T21:13:32.241Z,8.80
2018-04-23T21:15:59.764Z,8.00
2018-04-23T21:18:27.556Z,8.97
2018-04-23T21:20:55.083Z,9.03
2018-04-23T21:23:22.635Z,8.03
2018-04-23T21:25:50.202Z,7.80
2018-04-23T21:28:17.719Z,8.47
2018-04-23T21:30:45.279Z,8.10
2018-04-23T21:33:12.795Z,8.77
2018-04-23T21:35:40.343Z,7.47
2018-04-23T21:38:07.858Z,7.40
2018-04-23T21:40:36.175Z,8.10
2018-04-23T21:43:03.708Z,7.57
2018-04-23T21:45:31.243Z,8.50
2018-04-23T21:47:58.763Z,7.37
2018-04-23T21:50:26.309Z,8.27
2018-04-23T21:52:53.930Z,8.13
2018-04-23T21:55:21.487Z,8.30
2018-04-23T21:57:49.771Z,8.43
2018-04-23T22:00:17.340Z,8.53
2018-04-23T22:02:44.862Z,8.30
2018-04-23T22:05:12.454Z,8.27
2018-04-23T22:07:40.068Z,7.57
2018-04-23T22:10:07.946Z,7.93
2018-04-23T22:12:35.475Z,7.73
2018-04-23T22:15:03.024Z,8.20
2018-04-23T22:17:30.542Z,7.40
2018-04-23T22:19:58.097Z,8.90
2018-04-23T22:22:25.656Z,8.23
2018-04-23T22:24:53.194Z,8.50
2018-04-23T22:27:20.717Z,8.87
2018-04-23T22:29:48.255Z,9.30
2018-04-23T22:32:15.775Z,8.50
2018-04-23T22:34:44.091Z,8.80
2018-04-23T22:37:11.611Z,8.10
2018-04-23T22:39:39.173Z,9.10
2018-04-23T22:42:06.699Z,7.80
2018-04-23T22:44:34.224Z,8.70
2018-04-23T22:47:01.771Z,8.70
2018-04-23T22:49:29.290Z,8.30
2018-04-23T22:51:57.610Z,8.60
2018-04-23T22:54:25.152Z,7.87
2018-04-23T22:56:52.795Z,8.60
2018-04-23T22:59:20.311Z,8.67
2018-04-23T23:01:47.854Z,7.93
2018-04-23T23:04:15.372Z,7.60
2018-04-23T23:06:42.948Z,8.30
2018-04-23T23:09:10.480Z,8.40
2018-04-23T23:11:38.787Z,8.30
2018-04-23T23:14:06.319Z,8.30
2018-04-23T23:16:33.863Z,9.23
2018-04-23T23:19:01.384Z,7.97
2018-04-23T23:21:28.946Z,8.73
2018-04-23T23:23:56.475Z,7.87
2018-04-23T23:26:24.040Z,7.77
2018-04-23T23:28:51.564Z,9.20
2018-04-23T23:31:19.116Z,8.20
2018-04-23T23:33:46.651Z,7.60
2018-04-23T23:36:14.208Z,8.73
2018-04-23T23:38:41.731Z,8.90
2018-04-23T23:41:09.275Z,9.30
2018-04-23T23:43:36.806Z,8.27
2018-04-23T23:46:05.161Z,8.47
2018-04-23T23:48:33.492Z,7.80
2018-04-23T23:51:01.043Z,8.13
2018-04-23T23:53:28.674Z,8.00
2018-04-23T23:55:56.220Z,8.00
2018-04-23T23:58:23.773Z,8.20
